DAL864 MMMX-KIAH
Flight info
| Callsign | DAL864 |
|---|---|
| Flight time | 1h 43m |
| Altitude | 35000 |
| Route | IKLAN2A IKLAN UT139 ONGOB UJ35 MAM/N0465F360 DCT CRP HTOWN3 |
| Aircraft | A321/M-SDE3FGHIRWY/LB1 |
Departure
| Time | 2026-05-05 17:31 |
|---|---|
| Airport | Mexico City Benito Juárez International Airport (MMMX) |
Arrival
| Time | 2026-05-05 19:14 |
|---|---|
| Airport | George Bush Intercontinental Airport (KIAH) |
| Time | Latitude | Longitude | Altitude | Speed | Heading |
|---|---|---|---|---|---|
| 2026-05-05 17:04 | 19.42456 | -99.07805 | 7302 ft | 0 kts | 213° |
| 2026-05-05 17:23 | 19.42461 | -99.07801 | 7302 ft | 4 kts | 213° |
| 2026-05-05 17:23 | 19.42483 | -99.07785 | 7302 ft | 4 kts | 213° |
| 2026-05-05 17:24 | 19.42503 | -99.07772 | 7302 ft | 3 kts | 214° |
| 2026-05-05 17:24 | 19.42519 | -99.07753 | 7302 ft | 4 kts | 264° |
| 2026-05-05 17:24 | 19.42518 | -99.07727 | 7302 ft | 2 kts | 270° |
| 2026-05-05 17:24 | 19.42518 | -99.07726 | 7302 ft | 0 kts | 270° |
| 2026-05-05 17:26 | 19.42521 | -99.07733 | 7302 ft | 3 kts | 296° |
| 2026-05-05 17:26 | 19.42556 | -99.07758 | 7302 ft | 10 kts | 327° |
| 2026-05-05 17:27 | 19.42639 | -99.07810 | 7302 ft | 18 kts | 329° |
| 2026-05-05 17:27 | 19.42738 | -99.07874 | 7302 ft | 13 kts | 324° |
| 2026-05-05 17:27 | 19.42727 | -99.07970 | 7302 ft | 18 kts | 239° |
| 2026-05-05 17:27 | 19.42652 | -99.08103 | 7302 ft | 22 kts | 239° |
| 2026-05-05 17:28 | 19.42578 | -99.08235 | 7302 ft | 18 kts | 240° |
| 2026-05-05 17:28 | 19.42581 | -99.08315 | 7302 ft | 10 kts | 322° |
| 2026-05-05 17:28 | 19.42634 | -99.08348 | 7301 ft | 8 kts | 332° |
| 2026-05-05 17:28 | 19.42673 | -99.08370 | 7302 ft | 6 kts | 332° |
| 2026-05-05 17:29 | 19.42712 | -99.08393 | 7302 ft | 7 kts | 331° |
| 2026-05-05 17:29 | 19.42763 | -99.08418 | 7302 ft | 9 kts | 346° |
| 2026-05-05 17:29 | 19.42811 | -99.08386 | 7302 ft | 0 kts | 58° |
| 2026-05-05 17:29 | 19.42821 | -99.08369 | 7302 ft | 20 kts | 58° |
| 2026-05-05 17:30 | 19.43014 | -99.08034 | 7303 ft | 84 kts | 59° |
| 2026-05-05 17:30 | 19.43406 | -99.07329 | 7303 ft | 136 kts | 59° |
| 2026-05-05 17:30 | 19.43966 | -99.06329 | 7302 ft | 178 kts | 59° |
| 2026-05-05 17:30 | 19.44623 | -99.05117 | 7599 ft | 189 kts | 61° |
| 2026-05-05 17:31 | 19.45255 | -99.03923 | 8524 ft | 187 kts | 58° |
| 2026-05-05 17:31 | 19.45959 | -99.02731 | 9197 ft | 195 kts | 56° |
| 2026-05-05 17:31 | 19.46738 | -99.01518 | 9535 ft | 203 kts | 55° |
| 2026-05-05 17:31 | 19.47543 | -99.00280 | 9682 ft | 203 kts | 55° |
| 2026-05-05 17:32 | 19.48343 | -98.99050 | 9825 ft | 202 kts | 54° |
| 2026-05-05 17:32 | 19.49151 | -98.97805 | 10084 ft | 203 kts | 56° |
| 2026-05-05 17:32 | 19.49890 | -98.96515 | 10281 ft | 207 kts | 59° |
| 2026-05-05 17:32 | 19.50620 | -98.95179 | 10463 ft | 211 kts | 59° |
| 2026-05-05 17:33 | 19.51359 | -98.93831 | 10689 ft | 212 kts | 59° |
| 2026-05-05 17:33 | 19.52104 | -98.92475 | 10930 ft | 214 kts | 60° |
| 2026-05-05 17:33 | 19.52861 | -98.91102 | 11125 ft | 217 kts | 59° |
| 2026-05-05 17:33 | 19.53720 | -98.89752 | 11250 ft | 226 kts | 50° |
| 2026-05-05 17:34 | 19.54796 | -98.88489 | 11353 ft | 235 kts | 47° |
| 2026-05-05 17:34 | 19.55929 | -98.87198 | 11452 ft | 243 kts | 47° |
| 2026-05-05 17:34 | 19.57098 | -98.85871 | 11550 ft | 251 kts | 47° |
| 2026-05-05 17:34 | 19.58314 | -98.84488 | 11625 ft | 262 kts | 48° |
| 2026-05-05 17:35 | 19.59581 | -98.83038 | 11731 ft | 274 kts | 48° |
| 2026-05-05 17:35 | 19.60913 | -98.81507 | 11792 ft | 291 kts | 48° |
| 2026-05-05 17:35 | 19.62320 | -98.79883 | 11876 ft | 307 kts | 48° |
| 2026-05-05 17:35 | 19.63802 | -98.78171 | 11996 ft | 323 kts | 48° |
| 2026-05-05 17:36 | 19.65356 | -98.76376 | 12090 ft | 338 kts | 48° |
| 2026-05-05 17:36 | 19.66982 | -98.74496 | 12214 ft | 353 kts | 47° |
| 2026-05-05 17:36 | 19.68835 | -98.72714 | 12455 ft | 368 kts | 38° |
| 2026-05-05 17:36 | 19.71044 | -98.71245 | 12560 ft | 382 kts | 28° |
| 2026-05-05 17:37 | 19.73547 | -98.70187 | 12669 ft | 394 kts | 17° |
| 2026-05-05 17:37 | 19.75335 | -98.69761 | 12801 ft | 400 kts | 9° |
| 2026-05-05 17:37 | 19.79075 | -98.69455 | 13285 ft | 405 kts | 4° |
| 2026-05-05 17:37 | 19.81897 | -98.69270 | 13683 ft | 407 kts | 5° |
| 2026-05-05 17:38 | 19.84735 | -98.69075 | 14057 ft | 410 kts | 5° |
| 2026-05-05 17:38 | 19.87552 | -98.68880 | 14376 ft | 412 kts | 5° |
| 2026-05-05 17:38 | 19.90423 | -98.68681 | 14687 ft | 415 kts | 5° |
| 2026-05-05 17:38 | 19.93354 | -98.68642 | 14995 ft | 419 kts | 356° |
| 2026-05-05 17:39 | 19.96242 | -98.69155 | 15287 ft | 424 kts | 346° |
| 2026-05-05 17:39 | 19.99029 | -98.70229 | 15600 ft | 428 kts | 335° |
| 2026-05-05 17:39 | 20.01610 | -98.71827 | 15918 ft | 432 kts | 326° |
| 2026-05-05 17:39 | 20.04053 | -98.73710 | 16218 ft | 435 kts | 325° |
| 2026-05-05 17:40 | 20.06505 | -98.75604 | 16527 ft | 438 kts | 325° |
| 2026-05-05 17:40 | 20.08979 | -98.77516 | 16848 ft | 440 kts | 325° |
| 2026-05-05 17:40 | 20.11457 | -98.79434 | 17162 ft | 442 kts | 325° |
| 2026-05-05 17:40 | 20.13953 | -98.81367 | 17454 ft | 445 kts | 325° |
| 2026-05-05 17:41 | 20.16459 | -98.83309 | 17758 ft | 447 kts | 325° |
| 2026-05-05 17:41 | 20.18977 | -98.85272 | 18073 ft | 449 kts | 324° |
| 2026-05-05 17:41 | 20.21612 | -98.87053 | 18332 ft | 450 kts | 334° |
| 2026-05-05 17:41 | 20.24499 | -98.88337 | 18609 ft | 450 kts | 344° |
| 2026-05-05 17:42 | 20.27544 | -98.89066 | 18873 ft | 449 kts | 354° |
| 2026-05-05 17:42 | 20.30661 | -98.89234 | 19113 ft | 449 kts | 3° |
| 2026-05-05 17:42 | 20.33789 | -98.89176 | 19376 ft | 451 kts | 4° |
| 2026-05-05 17:42 | 20.36932 | -98.89126 | 19670 ft | 452 kts | 2° |
| 2026-05-05 17:43 | 20.40079 | -98.89083 | 19945 ft | 453 kts | 2° |
| 2026-05-05 17:43 | 20.43237 | -98.88999 | 20246 ft | 454 kts | 6° |
| 2026-05-05 17:43 | 20.46363 | -98.88545 | 20537 ft | 454 kts | 11° |
| 2026-05-05 17:43 | 20.49490 | -98.88005 | 20815 ft | 456 kts | 11° |
| 2026-05-05 17:44 | 20.52624 | -98.87461 | 21080 ft | 457 kts | 10° |
| 2026-05-05 17:44 | 20.55771 | -98.86916 | 21352 ft | 459 kts | 11° |
| 2026-05-05 17:44 | 20.58929 | -98.86369 | 21620 ft | 460 kts | 10° |
| 2026-05-05 17:44 | 20.62099 | -98.85820 | 21833 ft | 463 kts | 10° |
| 2026-05-05 17:45 | 20.65288 | -98.85267 | 22070 ft | 465 kts | 10° |
| 2026-05-05 17:45 | 20.68490 | -98.84712 | 22333 ft | 467 kts | 10° |
| 2026-05-05 17:45 | 20.71703 | -98.84156 | 22587 ft | 469 kts | 10° |
| 2026-05-05 17:45 | 20.74928 | -98.83599 | 22832 ft | 470 kts | 9° |
| 2026-05-05 17:46 | 20.78205 | -98.83032 | 23066 ft | 472 kts | 10° |
| 2026-05-05 17:46 | 20.81454 | -98.82470 | 23313 ft | 473 kts | 10° |
| 2026-05-05 17:46 | 20.84706 | -98.81908 | 23530 ft | 475 kts | 9° |
| 2026-05-05 17:46 | 20.87931 | -98.81349 | 23715 ft | 476 kts | 9° |
| 2026-05-05 17:47 | 20.91249 | -98.80773 | 23912 ft | 478 kts | 9° |
| 2026-05-05 17:47 | 20.94539 | -98.80203 | 24066 ft | 480 kts | 9° |
| 2026-05-05 17:47 | 20.97845 | -98.79630 | 24259 ft | 482 kts | 9° |
| 2026-05-05 17:47 | 21.01121 | -98.79061 | 24443 ft | 483 kts | 9° |
| 2026-05-05 17:48 | 21.04445 | -98.78483 | 24631 ft | 485 kts | 9° |
| 2026-05-05 17:48 | 21.07831 | -98.77894 | 24831 ft | 487 kts | 9° |
| 2026-05-05 17:48 | 21.11135 | -98.77321 | 25029 ft | 488 kts | 9° |
| 2026-05-05 17:48 | 21.14534 | -98.76730 | 25215 ft | 490 kts | 9° |
| 2026-05-05 17:49 | 21.17907 | -98.76142 | 25398 ft | 491 kts | 9° |
| 2026-05-05 17:49 | 21.21287 | -98.75552 | 25579 ft | 493 kts | 8° |
| 2026-05-05 17:49 | 21.24677 | -98.74959 | 25760 ft | 494 kts | 8° |
| 2026-05-05 17:49 | 21.28068 | -98.74367 | 26039 ft | 493 kts | 8° |
| 2026-05-05 17:50 | 21.31447 | -98.73776 | 26308 ft | 492 kts | 8° |
| 2026-05-05 17:50 | 21.34819 | -98.73187 | 26579 ft | 491 kts | 8° |
| 2026-05-05 17:50 | 21.38193 | -98.72598 | 26836 ft | 491 kts | 8° |
| 2026-05-05 17:50 | 21.41557 | -98.72010 | 27106 ft | 490 kts | 8° |
| 2026-05-05 17:51 | 21.44920 | -98.71423 | 27386 ft | 489 kts | 8° |
| 2026-05-05 17:51 | 21.48280 | -98.70836 | 27686 ft | 488 kts | 8° |
| 2026-05-05 17:51 | 21.51624 | -98.70249 | 27978 ft | 487 kts | 8° |
| 2026-05-05 17:51 | 21.54962 | -98.69663 | 28260 ft | 486 kts | 8° |
| 2026-05-05 17:52 | 21.58303 | -98.69080 | 28537 ft | 485 kts | 8° |
| 2026-05-05 17:52 | 21.61631 | -98.68499 | 28807 ft | 485 kts | 8° |
| 2026-05-05 17:52 | 21.64961 | -98.67915 | 29082 ft | 485 kts | 8° |
| 2026-05-05 17:52 | 21.68251 | -98.67338 | 29353 ft | 484 kts | 8° |
| 2026-05-05 17:53 | 21.71616 | -98.66748 | 29621 ft | 484 kts | 8° |
| 2026-05-05 17:53 | 21.74937 | -98.66165 | 29880 ft | 483 kts | 8° |
| 2026-05-05 17:53 | 21.78257 | -98.65583 | 30106 ft | 483 kts | 8° |
| 2026-05-05 17:53 | 21.81575 | -98.65002 | 30315 ft | 483 kts | 8° |
| 2026-05-05 17:54 | 21.84896 | -98.64420 | 30531 ft | 483 kts | 8° |
| 2026-05-05 17:54 | 21.87091 | -98.64034 | 30681 ft | 483 kts | 8° |
| 2026-05-05 17:54 | 21.90497 | -98.63433 | 30903 ft | 483 kts | 7° |
| 2026-05-05 17:54 | 21.93819 | -98.62847 | 31112 ft | 483 kts | 7° |
| 2026-05-05 17:55 | 21.97134 | -98.62260 | 31337 ft | 483 kts | 7° |
| 2026-05-05 17:55 | 22.00413 | -98.61680 | 31556 ft | 483 kts | 7° |
| 2026-05-05 17:55 | 22.03774 | -98.61084 | 31779 ft | 483 kts | 7° |
| 2026-05-05 17:55 | 22.07092 | -98.60497 | 32010 ft | 483 kts | 7° |
| 2026-05-05 17:56 | 22.10416 | -98.59911 | 32237 ft | 483 kts | 7° |
| 2026-05-05 17:56 | 22.13735 | -98.59329 | 32456 ft | 483 kts | 7° |
| 2026-05-05 17:56 | 22.17058 | -98.58746 | 32687 ft | 483 kts | 7° |
| 2026-05-05 17:56 | 22.20372 | -98.58164 | 32923 ft | 483 kts | 7° |
| 2026-05-05 17:57 | 22.23696 | -98.57576 | 33163 ft | 483 kts | 7° |
| 2026-05-05 17:57 | 22.26967 | -98.56994 | 33387 ft | 483 kts | 7° |
| 2026-05-05 17:57 | 22.30326 | -98.56396 | 33623 ft | 483 kts | 7° |
| 2026-05-05 17:57 | 22.33641 | -98.55806 | 33847 ft | 483 kts | 7° |
| 2026-05-05 17:58 | 22.36954 | -98.55216 | 34045 ft | 482 kts | 7° |
| 2026-05-05 17:58 | 22.40262 | -98.54629 | 34255 ft | 482 kts | 7° |
| 2026-05-05 17:58 | 22.43569 | -98.54043 | 34470 ft | 481 kts | 7° |
| 2026-05-05 17:58 | 22.46827 | -98.53467 | 34686 ft | 480 kts | 7° |
| 2026-05-05 17:59 | 22.50125 | -98.52884 | 34806 ft | 480 kts | 7° |
| 2026-05-05 17:59 | 22.56700 | -98.51721 | 34844 ft | 478 kts | 6° |
| 2026-05-05 18:00 | 22.63269 | -98.50561 | 34835 ft | 478 kts | 6° |
| 2026-05-05 18:00 | 22.69837 | -98.49391 | 34838 ft | 478 kts | 6° |
| 2026-05-05 18:01 | 22.76402 | -98.48215 | 34850 ft | 478 kts | 6° |
| 2026-05-05 18:01 | 22.82965 | -98.47044 | 34845 ft | 478 kts | 6° |
| 2026-05-05 18:02 | 22.89524 | -98.45875 | 34859 ft | 478 kts | 6° |
| 2026-05-05 18:02 | 22.96080 | -98.44708 | 34856 ft | 477 kts | 6° |
| 2026-05-05 18:03 | 23.02634 | -98.43536 | 34856 ft | 477 kts | 6° |
| 2026-05-05 18:03 | 23.09188 | -98.42361 | 34854 ft | 477 kts | 6° |
| 2026-05-05 18:04 | 23.15740 | -98.41186 | 34852 ft | 477 kts | 6° |
| 2026-05-05 18:04 | 23.22289 | -98.40014 | 34857 ft | 477 kts | 6° |
| 2026-05-05 18:05 | 23.28827 | -98.38662 | 34841 ft | 480 kts | 14° |
| 2026-05-05 18:05 | 23.35211 | -98.36478 | 34841 ft | 481 kts | 14° |
| 2026-05-05 18:06 | 23.41601 | -98.34300 | 34832 ft | 481 kts | 14° |
| 2026-05-05 18:06 | 23.47986 | -98.32123 | 34837 ft | 481 kts | 14° |
| 2026-05-05 18:07 | 23.54370 | -98.29936 | 34840 ft | 481 kts | 14° |
| 2026-05-05 18:07 | 23.60754 | -98.27755 | 34833 ft | 481 kts | 14° |
| 2026-05-05 18:08 | 23.67143 | -98.25572 | 34831 ft | 481 kts | 14° |
| 2026-05-05 18:08 | 23.73531 | -98.23371 | 34830 ft | 482 kts | 14° |
| 2026-05-05 18:09 | 23.79930 | -98.21167 | 34822 ft | 482 kts | 14° |
| 2026-05-05 18:09 | 23.86324 | -98.18973 | 34841 ft | 482 kts | 14° |
| 2026-05-05 18:10 | 23.92718 | -98.16772 | 34829 ft | 482 kts | 14° |
| 2026-05-05 18:10 | 23.99114 | -98.14573 | 34824 ft | 482 kts | 14° |
| 2026-05-05 18:11 | 24.05515 | -98.12380 | 34819 ft | 482 kts | 14° |
| 2026-05-05 18:11 | 24.11917 | -98.10170 | 34821 ft | 483 kts | 14° |
| 2026-05-05 18:12 | 24.18328 | -98.07949 | 34846 ft | 483 kts | 13° |
| 2026-05-05 18:12 | 24.24744 | -98.05727 | 34839 ft | 484 kts | 13° |
| 2026-05-05 18:13 | 24.31161 | -98.03510 | 34845 ft | 484 kts | 13° |
| 2026-05-05 18:13 | 24.37582 | -98.01294 | 34842 ft | 483 kts | 13° |
| 2026-05-05 18:14 | 24.44000 | -97.99077 | 34833 ft | 483 kts | 13° |
| 2026-05-05 18:14 | 24.50412 | -97.96853 | 34831 ft | 483 kts | 14° |
| 2026-05-05 18:15 | 24.56819 | -97.94619 | 34835 ft | 483 kts | 14° |
| 2026-05-05 18:15 | 24.63229 | -97.92391 | 34837 ft | 483 kts | 13° |
| 2026-05-05 18:16 | 24.69642 | -97.90172 | 34837 ft | 483 kts | 13° |
| 2026-05-05 18:16 | 24.76046 | -97.87939 | 34848 ft | 483 kts | 14° |
| 2026-05-05 18:17 | 24.82453 | -97.85701 | 34859 ft | 483 kts | 13° |
| 2026-05-05 18:17 | 24.88869 | -97.83460 | 34854 ft | 483 kts | 13° |
| 2026-05-05 18:18 | 24.95270 | -97.81229 | 34854 ft | 483 kts | 13° |
| 2026-05-05 18:18 | 25.01669 | -97.78991 | 34850 ft | 483 kts | 13° |
| 2026-05-05 18:19 | 25.08069 | -97.76748 | 34847 ft | 483 kts | 13° |
| 2026-05-05 18:19 | 25.14478 | -97.74506 | 34859 ft | 483 kts | 13° |
| 2026-05-05 18:20 | 25.20878 | -97.72256 | 34871 ft | 483 kts | 13° |
| 2026-05-05 18:20 | 25.27239 | -97.70019 | 34867 ft | 483 kts | 13° |
| 2026-05-05 18:21 | 25.33641 | -97.67771 | 34863 ft | 483 kts | 13° |
| 2026-05-05 18:21 | 25.40044 | -97.65515 | 34859 ft | 483 kts | 13° |
| 2026-05-05 18:22 | 25.46437 | -97.63255 | 34872 ft | 482 kts | 12° |
| 2026-05-05 18:22 | 25.52826 | -97.60996 | 34864 ft | 482 kts | 12° |
| 2026-05-05 18:23 | 25.59212 | -97.58735 | 34868 ft | 482 kts | 12° |
| 2026-05-05 18:23 | 25.65597 | -97.56465 | 34861 ft | 481 kts | 13° |
| 2026-05-05 18:24 | 25.71969 | -97.54196 | 34862 ft | 481 kts | 12° |
| 2026-05-05 18:24 | 25.78402 | -97.52412 | 34870 ft | 471 kts | 360° |
| 2026-05-05 18:25 | 25.84896 | -97.52109 | 34861 ft | 467 kts | 356° |
| 2026-05-05 18:25 | 25.91390 | -97.51870 | 34854 ft | 467 kts | 356° |
| 2026-05-05 18:26 | 25.97884 | -97.51622 | 34849 ft | 467 kts | 356° |
| 2026-05-05 18:26 | 26.04419 | -97.51383 | 34843 ft | 467 kts | 356° |
| 2026-05-05 18:27 | 26.10915 | -97.51145 | 34857 ft | 467 kts | 355° |
| 2026-05-05 18:27 | 26.17418 | -97.50911 | 34850 ft | 468 kts | 355° |
| 2026-05-05 18:28 | 26.27179 | -97.50555 | 34845 ft | 468 kts | 355° |
| 2026-05-05 18:28 | 26.33647 | -97.50312 | 34844 ft | 468 kts | 355° |
| 2026-05-05 18:29 | 26.40158 | -97.50072 | 34862 ft | 468 kts | 355° |
| 2026-05-05 18:29 | 26.46670 | -97.49833 | 34863 ft | 468 kts | 355° |
| 2026-05-05 18:30 | 26.53186 | -97.49593 | 34848 ft | 468 kts | 355° |
| 2026-05-05 18:30 | 26.59711 | -97.49359 | 34844 ft | 468 kts | 355° |
| 2026-05-05 18:31 | 26.66234 | -97.49120 | 34851 ft | 469 kts | 355° |
| 2026-05-05 18:31 | 26.72754 | -97.48878 | 34850 ft | 469 kts | 355° |
| 2026-05-05 18:32 | 26.79273 | -97.48635 | 34856 ft | 469 kts | 355° |
| 2026-05-05 18:32 | 26.85800 | -97.48391 | 34843 ft | 469 kts | 355° |
| 2026-05-05 18:33 | 26.91215 | -97.48189 | 34847 ft | 469 kts | 355° |
| 2026-05-05 18:33 | 26.97737 | -97.47950 | 34859 ft | 469 kts | 354° |
| 2026-05-05 18:34 | 27.04266 | -97.47703 | 34851 ft | 469 kts | 354° |
| 2026-05-05 18:34 | 27.10794 | -97.47459 | 34845 ft | 469 kts | 354° |
| 2026-05-05 18:35 | 27.17320 | -97.47217 | 34846 ft | 469 kts | 354° |
| 2026-05-05 18:35 | 27.23850 | -97.46977 | 34846 ft | 470 kts | 354° |
| 2026-05-05 18:36 | 27.30390 | -97.46734 | 34861 ft | 470 kts | 354° |
| 2026-05-05 18:36 | 27.36918 | -97.46489 | 34852 ft | 470 kts | 354° |
| 2026-05-05 18:37 | 27.43450 | -97.46239 | 34843 ft | 470 kts | 354° |
| 2026-05-05 18:37 | 27.49980 | -97.45993 | 34839 ft | 469 kts | 354° |
| 2026-05-05 18:38 | 27.56517 | -97.45756 | 34853 ft | 470 kts | 354° |
| 2026-05-05 18:38 | 27.63099 | -97.45510 | 34859 ft | 470 kts | 354° |
| 2026-05-05 18:39 | 27.69637 | -97.45257 | 34858 ft | 470 kts | 354° |
| 2026-05-05 18:39 | 27.76180 | -97.45013 | 34862 ft | 471 kts | 354° |
| 2026-05-05 18:40 | 27.82683 | -97.44771 | 34860 ft | 470 kts | 354° |
| 2026-05-05 18:40 | 27.89235 | -97.43679 | 34866 ft | 488 kts | 11° |
| 2026-05-05 18:41 | 27.95342 | -97.40063 | 34851 ft | 507 kts | 32° |
| 2026-05-05 18:41 | 28.00876 | -97.35078 | 34836 ft | 508 kts | 33° |
| 2026-05-05 18:42 | 28.06419 | -97.30112 | 34832 ft | 509 kts | 32° |
| 2026-05-05 18:42 | 28.11971 | -97.25147 | 34841 ft | 509 kts | 32° |
| 2026-05-05 18:43 | 28.17522 | -97.20166 | 34847 ft | 509 kts | 33° |
| 2026-05-05 18:43 | 28.23057 | -97.15180 | 34881 ft | 507 kts | 32° |
| 2026-05-05 18:44 | 28.28579 | -97.10193 | 34885 ft | 506 kts | 32° |
| 2026-05-05 18:44 | 28.34082 | -97.05223 | 34880 ft | 505 kts | 32° |
| 2026-05-05 18:45 | 28.39574 | -97.00257 | 34874 ft | 505 kts | 32° |
| 2026-05-05 18:45 | 28.45066 | -96.95294 | 34882 ft | 504 kts | 32° |
| 2026-05-05 18:46 | 28.50560 | -96.90329 | 34900 ft | 505 kts | 32° |
| 2026-05-05 18:46 | 28.56066 | -96.85353 | 34885 ft | 506 kts | 32° |
| 2026-05-05 18:47 | 28.61564 | -96.80362 | 34885 ft | 506 kts | 32° |
| 2026-05-05 18:47 | 28.67055 | -96.75362 | 34890 ft | 505 kts | 32° |
| 2026-05-05 18:48 | 28.69801 | -96.72859 | 34651 ft | 506 kts | 32° |
| 2026-05-05 18:48 | 28.72564 | -96.70342 | 33432 ft | 513 kts | 32° |
| 2026-05-05 18:48 | 28.75363 | -96.67789 | 32455 ft | 514 kts | 32° |
| 2026-05-05 18:48 | 28.78128 | -96.65259 | 31998 ft | 508 kts | 32° |
| 2026-05-05 18:49 | 28.80931 | -96.62836 | 31423 ft | 501 kts | 26° |
| 2026-05-05 18:49 | 28.83931 | -96.60906 | 30861 ft | 489 kts | 17° |
| 2026-05-05 18:49 | 28.87056 | -96.59486 | 30320 ft | 480 kts | 11° |
| 2026-05-05 18:49 | 28.90184 | -96.58183 | 29748 ft | 478 kts | 12° |
| 2026-05-05 18:50 | 28.93294 | -96.56870 | 29204 ft | 474 kts | 12° |
| 2026-05-05 18:50 | 28.96373 | -96.55559 | 28676 ft | 470 kts | 12° |
| 2026-05-05 18:50 | 28.99422 | -96.54255 | 28147 ft | 466 kts | 12° |
| 2026-05-05 18:50 | 29.02439 | -96.52963 | 27640 ft | 461 kts | 12° |
| 2026-05-05 18:51 | 29.05437 | -96.51686 | 27132 ft | 457 kts | 12° |
| 2026-05-05 18:51 | 29.08406 | -96.50422 | 26633 ft | 453 kts | 12° |
| 2026-05-05 18:51 | 29.11347 | -96.49173 | 26141 ft | 450 kts | 12° |
| 2026-05-05 18:51 | 29.14274 | -96.47925 | 25656 ft | 446 kts | 12° |
| 2026-05-05 18:52 | 29.17170 | -96.46688 | 25193 ft | 442 kts | 12° |
| 2026-05-05 18:52 | 29.20041 | -96.45462 | 24732 ft | 438 kts | 12° |
| 2026-05-05 18:52 | 29.22887 | -96.44252 | 24261 ft | 434 kts | 12° |
| 2026-05-05 18:52 | 29.25667 | -96.43070 | 23823 ft | 430 kts | 12° |
| 2026-05-05 18:53 | 29.28502 | -96.41863 | 23332 ft | 427 kts | 12° |
| 2026-05-05 18:53 | 29.31241 | -96.40550 | 22840 ft | 428 kts | 19° |
| 2026-05-05 18:53 | 29.33891 | -96.39045 | 22384 ft | 423 kts | 19° |
| 2026-05-05 18:53 | 29.36510 | -96.37561 | 21928 ft | 418 kts | 19° |
| 2026-05-05 18:54 | 29.39104 | -96.36097 | 21485 ft | 413 kts | 19° |
| 2026-05-05 18:54 | 29.41675 | -96.34650 | 21010 ft | 410 kts | 19° |
| 2026-05-05 18:54 | 29.44213 | -96.33195 | 20548 ft | 409 kts | 23° |
| 2026-05-05 18:54 | 29.46570 | -96.31341 | 20065 ft | 414 kts | 35° |
| 2026-05-05 18:55 | 29.48588 | -96.28968 | 19589 ft | 418 kts | 48° |
| 2026-05-05 18:55 | 29.50353 | -96.26309 | 19108 ft | 417 kts | 49° |
| 2026-05-05 18:55 | 29.52104 | -96.23670 | 18649 ft | 415 kts | 49° |
| 2026-05-05 18:55 | 29.53854 | -96.21044 | 18230 ft | 413 kts | 50° |
| 2026-05-05 18:56 | 29.55403 | -96.18270 | 17756 ft | 412 kts | 59° |
| 2026-05-05 18:56 | 29.56750 | -96.15416 | 17528 ft | 402 kts | 59° |
| 2026-05-05 18:56 | 29.58087 | -96.12601 | 16956 ft | 399 kts | 59° |
| 2026-05-05 18:56 | 29.59403 | -96.09842 | 16483 ft | 388 kts | 59° |
| 2026-05-05 18:57 | 29.60678 | -96.07164 | 16079 ft | 377 kts | 59° |
| 2026-05-05 18:57 | 29.61921 | -96.04545 | 15541 ft | 376 kts | 59° |
| 2026-05-05 18:57 | 29.63183 | -96.01892 | 14903 ft | 378 kts | 59° |
| 2026-05-05 18:57 | 29.64437 | -95.99249 | 14277 ft | 375 kts | 59° |
| 2026-05-05 18:58 | 29.65679 | -95.96625 | 13660 ft | 372 kts | 60° |
| 2026-05-05 18:58 | 29.66897 | -95.94053 | 13390 ft | 356 kts | 60° |
| 2026-05-05 18:58 | 29.68057 | -95.91600 | 13117 ft | 343 kts | 60° |
| 2026-05-05 18:58 | 29.69186 | -95.89210 | 12873 ft | 337 kts | 60° |
| 2026-05-05 18:59 | 29.70302 | -95.86853 | 12647 ft | 334 kts | 60° |
| 2026-05-05 18:59 | 29.71405 | -95.84520 | 12327 ft | 333 kts | 60° |
| 2026-05-05 18:59 | 29.72509 | -95.82182 | 11942 ft | 332 kts | 60° |
| 2026-05-05 18:59 | 29.73608 | -95.79852 | 11555 ft | 332 kts | 60° |
| 2026-05-05 19:00 | 29.74703 | -95.77524 | 11203 ft | 330 kts | 61° |
| 2026-05-05 19:00 | 29.75790 | -95.75214 | 10862 ft | 327 kts | 61° |
| 2026-05-05 19:00 | 29.76872 | -95.72914 | 10493 ft | 325 kts | 61° |
| 2026-05-05 19:00 | 29.77898 | -95.70728 | 10284 ft | 310 kts | 61° |
| 2026-05-05 19:01 | 29.78908 | -95.68577 | 9850 ft | 306 kts | 61° |
| 2026-05-05 19:01 | 29.79915 | -95.66436 | 9400 ft | 301 kts | 61° |
| 2026-05-05 19:01 | 29.80813 | -95.64527 | 8993 ft | 301 kts | 62° |
| 2026-05-05 19:01 | 29.81810 | -95.62403 | 8630 ft | 301 kts | 62° |
| 2026-05-05 19:02 | 29.82801 | -95.60285 | 8255 ft | 300 kts | 62° |
| 2026-05-05 19:02 | 29.83698 | -95.58377 | 7947 ft | 299 kts | 62° |
| 2026-05-05 19:02 | 29.84688 | -95.56277 | 7605 ft | 298 kts | 62° |
| 2026-05-05 19:02 | 29.85671 | -95.54174 | 7250 ft | 298 kts | 63° |
| 2026-05-05 19:03 | 29.86640 | -95.52088 | 6961 ft | 294 kts | 63° |
| 2026-05-05 19:03 | 29.87622 | -95.49975 | 6569 ft | 296 kts | 63° |
| 2026-05-05 19:03 | 29.88571 | -95.47877 | 6389 ft | 295 kts | 69° |
| 2026-05-05 19:03 | 29.89141 | -95.45644 | 6235 ft | 287 kts | 85° |
| 2026-05-05 19:04 | 29.89213 | -95.43382 | 6031 ft | 280 kts | 94° |
| 2026-05-05 19:04 | 29.89193 | -95.41172 | 5983 ft | 281 kts | 93° |
| 2026-05-05 19:04 | 29.89187 | -95.38918 | 5985 ft | 281 kts | 94° |
| 2026-05-05 19:04 | 29.89187 | -95.36663 | 5990 ft | 281 kts | 94° |
| 2026-05-05 19:05 | 29.89187 | -95.34415 | 5991 ft | 281 kts | 94° |
| 2026-05-05 19:05 | 29.89186 | -95.32164 | 5984 ft | 281 kts | 93° |
| 2026-05-05 19:05 | 29.89183 | -95.29940 | 5988 ft | 281 kts | 93° |
| 2026-05-05 19:05 | 29.89176 | -95.27694 | 5983 ft | 280 kts | 94° |
| 2026-05-05 19:06 | 29.89153 | -95.25485 | 5885 ft | 270 kts | 94° |
| 2026-05-05 19:06 | 29.89139 | -95.23391 | 5760 ft | 259 kts | 94° |
| 2026-05-05 19:06 | 29.89143 | -95.21357 | 5673 ft | 249 kts | 94° |
| 2026-05-05 19:06 | 29.89162 | -95.19345 | 5538 ft | 247 kts | 93° |
| 2026-05-05 19:07 | 29.89188 | -95.17511 | 5430 ft | 245 kts | 92° |
| 2026-05-05 19:07 | 29.89212 | -95.16213 | 5349 ft | 244 kts | 92° |
| 2026-05-05 19:07 | 29.89267 | -95.13606 | 5184 ft | 242 kts | 92° |
| 2026-05-05 19:07 | 29.89419 | -95.11681 | 5036 ft | 242 kts | 77° |
| 2026-05-05 19:08 | 29.89885 | -95.10463 | 4885 ft | 242 kts | 57° |
| 2026-05-05 19:08 | 29.91095 | -95.09136 | 4654 ft | 243 kts | 28° |
| 2026-05-05 19:08 | 29.92578 | -95.08606 | 4423 ft | 240 kts | 1° |
| 2026-05-05 19:08 | 29.94182 | -95.08880 | 4190 ft | 233 kts | 333° |
| 2026-05-05 19:09 | 29.95475 | -95.09844 | 3985 ft | 211 kts | 315° |
| 2026-05-05 19:09 | 29.96577 | -95.10889 | 3750 ft | 194 kts | 315° |
| 2026-05-05 19:09 | 29.97534 | -95.11791 | 3578 ft | 181 kts | 314° |
| 2026-05-05 19:09 | 29.98431 | -95.12798 | 3398 ft | 173 kts | 300° |
| 2026-05-05 19:10 | 29.99020 | -95.13976 | 3272 ft | 167 kts | 285° |
| 2026-05-05 19:10 | 29.99313 | -95.15212 | 3039 ft | 153 kts | 270° |
| 2026-05-05 19:10 | 29.99351 | -95.16406 | 2828 ft | 147 kts | 263° |
| 2026-05-05 19:10 | 29.99348 | -95.17575 | 2627 ft | 145 kts | 263° |
| 2026-05-05 19:11 | 29.99347 | -95.18746 | 2437 ft | 147 kts | 263° |
| 2026-05-05 19:11 | 29.99347 | -95.19923 | 2236 ft | 147 kts | 262° |
| 2026-05-05 19:11 | 29.99347 | -95.21096 | 2036 ft | 146 kts | 262° |
| 2026-05-05 19:11 | 29.99347 | -95.22263 | 1847 ft | 144 kts | 263° |
| 2026-05-05 19:12 | 29.99348 | -95.23409 | 1656 ft | 142 kts | 262° |
| 2026-05-05 19:12 | 29.99347 | -95.24548 | 1454 ft | 142 kts | 263° |
| 2026-05-05 19:12 | 29.99346 | -95.25693 | 1274 ft | 143 kts | 264° |
| 2026-05-05 19:12 | 29.99344 | -95.26847 | 1071 ft | 145 kts | 263° |
| 2026-05-05 19:13 | 29.99339 | -95.28010 | 882 ft | 145 kts | 265° |
| 2026-05-05 19:13 | 29.99334 | -95.29177 | 650 ft | 144 kts | 262° |
| 2026-05-05 19:13 | 29.99343 | -95.30348 | 429 ft | 146 kts | 262° |
| 2026-05-05 19:13 | 29.99345 | -95.31516 | 252 ft | 145 kts | 264° |
| 2026-05-05 19:14 | 29.99341 | -95.32679 | 113 ft | 144 kts | 266° |
| 2026-05-05 19:14 | 29.99338 | -95.33673 | 100 ft | 96 kts | 271° |
| 2026-05-05 19:14 | 29.99343 | -95.34245 | 95 ft | 47 kts | 269° |
| 2026-05-05 19:14 | 29.99343 | -95.34539 | 96 ft | 34 kts | 267° |
| 2026-05-05 19:15 | 29.99298 | -95.34749 | 96 ft | 23 kts | 247° |
| 2026-05-05 19:15 | 29.99243 | -95.34865 | 98 ft | 0 kts | 238° |
| 2026-05-05 19:16 | 29.99243 | -95.34866 | 97 ft | 1 kts | 238° |
| 2026-05-05 19:16 | 29.99238 | -95.34876 | 97 ft | 3 kts | 238° |
| 2026-05-05 19:16 | 29.99221 | -95.34911 | 96 ft | 7 kts | 240° |
| 2026-05-05 19:16 | 29.99189 | -95.34975 | 99 ft | 11 kts | 238° |
| 2026-05-05 19:17 | 29.99118 | -95.35045 | 97 ft | 16 kts | 214° |
| 2026-05-05 19:17 | 29.99004 | -95.35077 | 98 ft | 19 kts | 181° |
| 2026-05-05 19:17 | 29.98898 | -95.35077 | 97 ft | 7 kts | 175° |